Messiah College, Pennsylvania
Current Conditions -  °F | °C
As of 9:56 PM on Wednesday 22 Oct 2014 (Local Time) from KCXY Reporting Station
Overcast Overcast  
Wind Chill: 54°   Ceiling: 2700
Heat Index: 54°   Visibility: 10mi
Dew Point: 43°   Wind: 12mph
Humidity: 66%   Direction: 330°NNW
Pressure: 29.97"   Gusts: 26mph
Location:  40.1564°N, 76.9967°W
Report Text: KCXY 230156Z AUTO 33010G23KT 10SM OVC027 12/06 A2997 RMK AO2 SLP149 T01220061
Loading
Personal Weather Stations






























Interactive Weather Map
Tropical Storm Tracking
New forecast layout! Learn more

10-Day Weather Forecast

Advertisements
Track Severe Weather on mobile